Ship Status Report: callsign BAREU60

sailwx.info

Track history (hours):
 
Tides and Currents Weather Stations Pressure Air Temp Water Temp Dewpoint Dewpoint Depression Visibility Wind Speed Wind Dir Waves Ship Positions

Callsign BAREU60 (name unknown)

Last reported at 2017-Dec-01 07:00 UTC. Time now 2018-Jun-25 09:58 UTC.
Position N 42°42' E 018°06'.
Warning: this ship's position is months out of date.

Barometer 1009.4 mb

Date/timePositionNaut miles runAvg speedWind from/ knotsBaromVisibWave heightAir tempDewpointWater temp
2017-Dec-01 07:00N 42°42' E 018°06'1514.9 1009.4
2017-Dec-01 06:00N 42°30' E 017°54'1514.9 1008.8
2017-Dec-01 05:00N 42°18' E 017°42'1312.8 1008.6
2017-Dec-01 04:00N 42°06' E 017°36'7 7.5 1008.5
2017-Dec-01 03:00N 42°00' E 017°30'1212.0 1008.3
2017-Dec-01 02:00N 41°48' E 017°30'1110.8 1007.7
2017-Dec-01 01:00N 41°42' E 017°18'1312.8 1007.8
2017-Dec-01 00:00N 41°30' E 017°12'1110.8 1007.5
2017-Nov-30 23:00N 41°24' E 017°00'8 7.5 1007.5
2017-Nov-30 22:00N 41°18' E 016°54'12 0.8 1007.9
2017-Nov-30 07:00N 41°06' E 016°54'1312.8 1001.4
2017-Nov-30 06:00N 41°18' E 017°00'1515.0 1000.3
2017-Nov-30 05:00N 41°30' E 017°12'1818.0 999.5
2017-Nov-30 04:00N 41°42' E 017°30'1818.0 999.9
2017-Nov-30 03:00N 41°54' E 017°48'1313.4 999.9
2017-Nov-30 02:00N 41°54' E 018°06'1918.8 1001.6
2017-Nov-30 01:00N 42°00' E 018°30'1313.4 1003.4
2017-Nov-30 00:00N 42°00' E 018°48'4 4.5 1004.9
2017-Nov-29 23:00N 42°00' E 018°54'11 1.5 1007.0
2017-Nov-29 16:00N 42°06' E 019°06'11 1.1 1013.1
2017-Nov-29 06:00N 42°00' E 018°54'1514.7 1015.9
2017-Nov-29 05:00N 41°54' E 018°36'1918.9 1015.4
2017-Nov-29 04:00N 41°48' E 018°12'1818.0 1015.4
2017-Nov-29 03:00N 41°36' E 017°54'1514.7 1015.1
2017-Nov-29 02:00N 41°30' E 017°36'1818.1 1015.1
2017-Nov-29 01:00N 41°18' E 017°18'1514.8 1015.6
2017-Nov-29 00:00N 41°12' E 017°00'1110.8 1015.9
2017-Nov-28 23:00N 41°06' E 016°48'13 0.8 1016.2
2017-Nov-28 06:00N 41°18' E 016°54'1515.0 1018.4
2017-Nov-28 05:00N 41°30' E 017°06'1110.8 1018.0
2017-Nov-28 04:00N 41°36' E 017°18'1312.8 1018.1
2017-Nov-28 03:00N 41°48' E 017°24'1312.8 1018.1
2017-Nov-28 02:00N 42°00' E 017°30'7 7.5 1018.2
2017-Nov-28 01:00N 42°06' E 017°36'1312.8 1018.3
2017-Nov-28 00:00N 42°18' E 017°42'1110.7 1018.1
2017-Nov-27 23:00N 42°24' E 017°54'1312.8 1018.0
2017-Nov-27 22:00N 42°36' E 018°00'7 7.4 1018.5
2017-Nov-27 21:00N 42°42' E 018°06'0 0.0 1018.3
2017-Nov-26 05:00N 42°42' E 018°06'0 0.0 1013.9
2017-Nov-25 08:00N 42°42' E 018°06'6 6.0 1021.1
2017-Nov-25 07:00N 42°36' E 018°06'0 0.0 1021.1
2017-Nov-24 18:00N 42°36' E 018°06'6 6.0 1022.3
2017-Nov-24 17:00N 42°42' E 018°06'0 0.0 1022.2
2017-Nov-24 08:00N 42°42' E 018°06'15 7.5 1022.9
2017-Nov-24 06:00N 42°30' E 017°54'7 7.5 1022.4
2017-Nov-24 05:00N 42°24' E 017°48'1312.8 1022.0
2017-Nov-24 04:00N 42°12' E 017°42'7 7.5 1021.8
2017-Nov-24 03:00N 42°06' E 017°36'1515.0 1022.2
2017-Nov-24 02:00N 41°54' E 017°24'1312.8 1022.1
2017-Nov-24 01:00N 41°42' E 017°18'7 7.5 1022.4
2017-Nov-24 00:00N 41°36' E 017°12'1515.0 1022.5
2017-Nov-23 23:00N 41°24' E 017°00'8 7.5 1022.5
2017-Nov-23 22:00N 41°18' E 016°54'6 0.4 1022.5
2017-Nov-23 06:00N 41°12' E 016°54'2221.7 1021.8
2017-Nov-23 05:00N 41°24' E 017°18'1514.8 1021.5
2017-Nov-23 04:00N 41°30' E 017°36'2221.6 1020.9
2017-Nov-23 03:00N 41°42' E 018°00'1514.7 1021.2
2017-Nov-23 02:00N 41°48' E 018°18'1110.8 1021.7
2017-Nov-23 01:00N 41°54' E 018°30'1110.8 1022.2
2017-Nov-23 00:00N 42°00' E 018°42'9 8.9 1022.1
2017-Nov-22 23:00N 42°00' E 018°54'11 3.6 1022.5
2017-Nov-22 20:00N 42°06' E 019°06'0 0.0 1022.3
2017-Nov-22 11:00N 42°06' E 019°06'11 2.1 1022.7
2017-Nov-22 06:00N 42°00' E 018°54'1918.8 1022.5
2017-Nov-22 05:00N 41°54' E 018°30'1818.0 1021.6
2017-Nov-22 04:00N 41°42' E 018°12'1918.9 1021.6
2017-Nov-22 03:00N 41°36' E 017°48'1515.0 1021.5
2017-Nov-22 02:00N 41°24' E 017°36'1413.5 1021.5
2017-Nov-22 01:00N 41°24' E 017°18'1110.8 1021.7
2017-Nov-22 00:00N 41°18' E 017°06'1110.8 1021.6
2017-Nov-21 23:00N 41°12' E 016°54'6 3.0 1021.9
2017-Nov-21 21:00N 41°06' E 016°54'   1021.7
Track history (hours):
 
Tides and Currents Weather Stations Pressure Air Temp Water Temp Dewpoint Dewpoint Depression Visibility Wind Speed Wind Dir Waves Ship Positions

Callsign BAREU60 (name unknown)

Last reported at 2017-Dec-01 07:00 UTC. Time now 2018-Jun-25 09:58 UTC.
Position N 42°42' E 018°06'.
Warning: this ship's position is months out of date.

Barometer 1009.4 mb

Date/timePositionNaut miles runAvg speedWind from/ knotsBaromVisibWave heightAir tempDewpointWater temp
2017-Dec-01 07:00N 42°42' E 018°06'1514.9 1009.4
2017-Dec-01 06:00N 42°30' E 017°54'1514.9 1008.8
2017-Dec-01 05:00N 42°18' E 017°42'1312.8 1008.6
2017-Dec-01 04:00N 42°06' E 017°36'7 7.5 1008.5
2017-Dec-01 03:00N 42°00' E 017°30'1212.0 1008.3
2017-Dec-01 02:00N 41°48' E 017°30'1110.8 1007.7
2017-Dec-01 01:00N 41°42' E 017°18'1312.8 1007.8
2017-Dec-01 00:00N 41°30' E 017°12'1110.8 1007.5
2017-Nov-30 23:00N 41°24' E 017°00'8 7.5 1007.5
2017-Nov-30 22:00N 41°18' E 016°54'12 0.8 1007.9
2017-Nov-30 07:00N 41°06' E 016°54'1312.8 1001.4
2017-Nov-30 06:00N 41°18' E 017°00'1515.0 1000.3
2017-Nov-30 05:00N 41°30' E 017°12'1818.0 999.5
2017-Nov-30 04:00N 41°42' E 017°30'1818.0 999.9
2017-Nov-30 03:00N 41°54' E 017°48'1313.4 999.9
2017-Nov-30 02:00N 41°54' E 018°06'1918.8 1001.6
2017-Nov-30 01:00N 42°00' E 018°30'1313.4 1003.4
2017-Nov-30 00:00N 42°00' E 018°48'4 4.5 1004.9
2017-Nov-29 23:00N 42°00' E 018°54'11 1.5 1007.0
2017-Nov-29 16:00N 42°06' E 019°06'11 1.1 1013.1
2017-Nov-29 06:00N 42°00' E 018°54'1514.7 1015.9
2017-Nov-29 05:00N 41°54' E 018°36'1918.9 1015.4
2017-Nov-29 04:00N 41°48' E 018°12'1818.0 1015.4
2017-Nov-29 03:00N 41°36' E 017°54'1514.7 1015.1
2017-Nov-29 02:00N 41°30' E 017°36'1818.1 1015.1
2017-Nov-29 01:00N 41°18' E 017°18'1514.8 1015.6
2017-Nov-29 00:00N 41°12' E 017°00'1110.8 1015.9
2017-Nov-28 23:00N 41°06' E 016°48'13 0.8 1016.2
2017-Nov-28 06:00N 41°18' E 016°54'1515.0 1018.4
2017-Nov-28 05:00N 41°30' E 017°06'1110.8 1018.0
2017-Nov-28 04:00N 41°36' E 017°18'1312.8 1018.1
2017-Nov-28 03:00N 41°48' E 017°24'1312.8 1018.1
2017-Nov-28 02:00N 42°00' E 017°30'7 7.5 1018.2
2017-Nov-28 01:00N 42°06' E 017°36'1312.8 1018.3
2017-Nov-28 00:00N 42°18' E 017°42'1110.7 1018.1
2017-Nov-27 23:00N 42°24' E 017°54'1312.8 1018.0
2017-Nov-27 22:00N 42°36' E 018°00'7 7.4 1018.5
2017-Nov-27 21:00N 42°42' E 018°06'0 0.0 1018.3
2017-Nov-26 05:00N 42°42' E 018°06'0 0.0 1013.9
2017-Nov-25 08:00N 42°42' E 018°06'6 6.0 1021.1
2017-Nov-25 07:00N 42°36' E 018°06'0 0.0 1021.1
2017-Nov-24 18:00N 42°36' E 018°06'6 6.0 1022.3
2017-Nov-24 17:00N 42°42' E 018°06'0 0.0 1022.2
2017-Nov-24 08:00N 42°42' E 018°06'15 7.5 1022.9
2017-Nov-24 06:00N 42°30' E 017°54'7 7.5 1022.4
2017-Nov-24 05:00N 42°24' E 017°48'1312.8 1022.0
2017-Nov-24 04:00N 42°12' E 017°42'7 7.5 1021.8
2017-Nov-24 03:00N 42°06' E 017°36'1515.0 1022.2
2017-Nov-24 02:00N 41°54' E 017°24'1312.8 1022.1
2017-Nov-24 01:00N 41°42' E 017°18'7 7.5 1022.4
2017-Nov-24 00:00N 41°36' E 017°12'1515.0 1022.5
2017-Nov-23 23:00N 41°24' E 017°00'8 7.5 1022.5
2017-Nov-23 22:00N 41°18' E 016°54'6 0.4 1022.5
2017-Nov-23 06:00N 41°12' E 016°54'2221.7 1021.8
2017-Nov-23 05:00N 41°24' E 017°18'1514.8 1021.5
2017-Nov-23 04:00N 41°30' E 017°36'2221.6 1020.9
2017-Nov-23 03:00N 41°42' E 018°00'1514.7 1021.2
2017-Nov-23 02:00N 41°48' E 018°18'1110.8 1021.7
2017-Nov-23 01:00N 41°54' E 018°30'1110.8 1022.2
2017-Nov-23 00:00N 42°00' E 018°42'9 8.9 1022.1
2017-Nov-22 23:00N 42°00' E 018°54'11 3.6 1022.5
2017-Nov-22 20:00N 42°06' E 019°06'0 0.0 1022.3
2017-Nov-22 11:00N 42°06' E 019°06'11 2.1 1022.7
2017-Nov-22 06:00N 42°00' E 018°54'1918.8 1022.5
2017-Nov-22 05:00N 41°54' E 018°30'1818.0 1021.6
2017-Nov-22 04:00N 41°42' E 018°12'1918.9 1021.6
2017-Nov-22 03:00N 41°36' E 017°48'1515.0 1021.5
2017-Nov-22 02:00N 41°24' E 017°36'1413.5 1021.5
2017-Nov-22 01:00N 41°24' E 017°18'1110.8 1021.7
2017-Nov-22 00:00N 41°18' E 017°06'1110.8 1021.6
2017-Nov-21 23:00N 41°12' E 016°54'6 3.0 1021.9
2017-Nov-21 21:00N 41°06' E 016°54'   1021.7

Dump ship's entire track history